Terminal Aerodrome Forecast
Issued by NWS Melbourne, FL

Home | Current Version | Previous Version | Text Only | Print | Product List | Glossary On
Versions: 1 2 3 4 5 6 7 8 9 10 11 12 13 14 15 16 17 18 19 20
824
FTUS42 KMLB 262340
TAFVRB
TAF
KVRB 262340Z 2700/2724 02009KT P6SM SKC
     FM270600 08008KT P6SM BKN035
     FM271500 12014G20KT P6SM VCSH BKN035=

USA.gov is the U.S. government's official web portal to all federal, state and local government web resources and services.